Impacts TAF Board
For situational awareness. Not to be used for flight planning purposes.
IDs:

KJCT - Junction/Kimble Cnty, TX, US

Issued at 2118 UTC 21 May 2022
Updated at 2132 UTC 21 May 2022
Potential Impact None Slight Moderate High
Time<<22/10Z 22/11Z 22/12Z 22/13Z 22/14Z 22/15Z 22/16Z 22/17Z 22/18Z 22/19Z 22/20Z 22/21Z 22/22Z>>
Type PRVL PRVL PRVL PRVL PRVL PRVL PRVL PRVL
VIS >6 >6 >6 >6 >6 >6 >6 >6
CIG 40 40 40 25 25 25 25 25
Cover OVC OVC OVC OVC OVC OVC OVC OVC
FltCat VFR VFR VFR MVFR MVFR MVFR MVFR MVFR
WX -- -- -- -- -- -- -- --
WDir 60 60 60 50 50 50 50 50
WSpd 10 10 10 10 10 10 10 10
WGst 20 20 20 -- -- -- -- --
WSHgt -- -- -- -- -- -- -- --
WSDir -- -- -- -- -- -- -- --
WSSpd -- -- -- -- -- -- -- --
Raw TAF
KJCT 212118Z 2121/2218 01010KT 5SM -TSRA BKN090CB
  FM212300 01010G18KT P6SM VCTS BKN090CB
  FM220000 05015G28KT P6SM SCT060 BKN100
  FM220700 06010G20KT P6SM SCT025 OVC040
  FM221300 05010KT P6SM SCT015 OVC025


METAR Board
Radar Display
Forecast Discussion
For situational awareness. Not to be used for flight planning purposes.